createdAt,value
2019-04-01T00:01:51.871Z,7.69
2019-04-01T00:04:21.391Z,7.65
2019-04-01T00:06:50.904Z,7.63
2019-04-01T00:09:20.418Z,7.62
2019-04-01T00:11:49.934Z,7.59
2019-04-01T00:14:19.468Z,7.58
2019-04-01T00:16:48.982Z,7.56
2019-04-01T00:19:18.533Z,7.55
2019-04-01T00:21:48.039Z,7.50
2019-04-01T00:24:17.554Z,7.41
2019-04-01T00:26:47.058Z,7.39
2019-04-01T00:29:16.604Z,7.39
2019-04-01T00:31:46.147Z,7.40
2019-04-01T00:34:15.713Z,7.41
2019-04-01T00:36:45.215Z,7.41
2019-04-01T00:39:14.727Z,7.39
2019-04-01T00:41:51.542Z,7.37
2019-04-01T00:44:21.080Z,7.30
2019-04-01T00:46:50.598Z,7.24
2019-04-01T00:49:20.128Z,7.25
2019-04-01T00:51:49.626Z,7.24
2019-04-01T00:54:19.129Z,7.19
2019-04-01T00:56:48.639Z,7.19
2019-04-01T00:59:18.184Z,7.11
2019-04-01T01:01:48.740Z,7.09
2019-04-01T01:04:18.258Z,6.91
2019-04-01T01:06:47.779Z,6.83
2019-04-01T01:09:17.307Z,6.68
2019-04-01T01:11:46.824Z,6.67
2019-04-01T01:14:16.358Z,6.66
2019-04-01T01:16:45.921Z,6.46
2019-04-01T01:19:16.406Z,6.42
2019-04-01T01:21:45.933Z,6.33
2019-04-01T01:24:15.440Z,6.45
2019-04-01T01:26:44.962Z,6.29
2019-04-01T01:29:14.473Z,6.12
2019-04-01T01:31:43.994Z,6.02
2019-04-01T01:34:13.502Z,6.01
2019-04-01T01:36:43.033Z,5.83
2019-04-01T01:39:13.518Z,5.79
2019-04-01T01:41:43.030Z,5.86
2019-04-01T01:44:12.616Z,5.78
2019-04-01T01:46:42.151Z,5.91
2019-04-01T01:49:11.676Z,5.97
2019-04-01T01:51:41.201Z,6.00
2019-04-01T01:54:12.510Z,6.06
2019-04-01T01:56:42.043Z,6.14
2019-04-01T01:59:11.654Z,6.21
2019-04-01T02:01:41.196Z,6.22
2019-04-01T02:04:10.713Z,6.13
2019-04-01T02:06:40.245Z,6.08
2019-04-01T02:09:10.747Z,6.14
2019-04-01T02:11:40.251Z,6.12
2019-04-01T02:14:09.762Z,6.14
2019-04-01T02:16:40.253Z,6.19
2019-04-01T02:19:09.767Z,6.20
2019-04-01T02:21:39.274Z,6.24
2019-04-01T02:24:08.779Z,6.25
2019-04-01T02:26:38.308Z,6.24
2019-04-01T02:29:07.830Z,6.27
2019-04-01T02:31:37.363Z,6.24
2019-04-01T02:34:06.909Z,6.27
2019-04-01T02:36:36.397Z,6.27
2019-04-01T02:39:08.532Z,6.29
2019-04-01T02:41:38.049Z,6.25
2019-04-01T02:44:07.566Z,6.21
2019-04-01T02:46:37.091Z,6.22
2019-04-01T02:49:06.625Z,6.23
2019-04-01T02:51:36.166Z,6.21
2019-04-01T02:54:05.758Z,6.18
2019-04-01T02:56:35.292Z,6.11
2019-04-01T02:59:04.826Z,6.07
2019-04-01T03:01:34.376Z,6.03
2019-04-01T03:04:04.083Z,5.89
2019-04-01T03:06:33.597Z,5.90
2019-04-01T03:09:04.838Z,5.93
2019-04-01T03:11:34.357Z,5.91
2019-04-01T03:14:03.898Z,5.91
2019-04-01T03:16:33.418Z,5.87
2019-04-01T03:19:02.935Z,5.89
2019-04-01T03:21:32.525Z,5.81
2019-04-01T03:24:02.128Z,5.80
2019-04-01T03:26:31.766Z,5.69
2019-04-01T03:29:01.329Z,5.44
2019-04-01T03:31:30.870Z,5.46
2019-04-01T03:34:00.388Z,5.36
2019-04-01T03:36:29.896Z,5.28
2019-04-01T03:38:59.413Z,5.38
2019-04-01T03:41:28.964Z,5.40
2019-04-01T03:43:58.615Z,5.41
2019-04-01T03:46:28.146Z,5.24
2019-04-01T03:48:57.670Z,5.38
2019-04-01T03:51:27.208Z,5.50
2019-04-01T03:53:56.825Z,5.63
2019-04-01T03:56:26.438Z,5.72
2019-04-01T03:58:55.959Z,5.69
2019-04-01T04:01:30.086Z,5.52
2019-04-01T04:03:56.729Z,5.36
2019-04-01T04:06:26.318Z,5.35
2019-04-01T04:08:55.844Z,5.21
2019-04-01T04:11:25.348Z,5.17
2019-04-01T04:13:54.923Z,5.27
2019-04-01T04:16:24.462Z,5.34
2019-04-01T04:18:53.966Z,5.17
2019-04-01T04:21:24.227Z,5.03
2019-04-01T04:23:54.032Z,4.99
2019-04-01T04:26:23.562Z,4.88
2019-04-01T04:28:53.088Z,4.72
2019-04-01T04:31:22.597Z,4.68
2019-04-01T04:33:52.137Z,4.57
2019-04-01T04:36:21.669Z,4.60
2019-04-01T04:38:51.179Z,4.46
2019-04-01T04:41:20.683Z,4.57
2019-04-01T04:43:50.281Z,4.44
2019-04-01T04:46:21.183Z,4.48
2019-04-01T04:48:52.096Z,4.59
2019-04-01T04:51:21.597Z,4.51
2019-04-01T04:53:51.151Z,4.44
2019-04-01T04:56:20.710Z,4.47
2019-04-01T04:58:50.256Z,4.53
2019-04-01T05:01:19.764Z,4.52
2019-04-01T05:03:49.279Z,4.60
2019-04-01T05:06:18.784Z,4.50
2019-04-01T05:08:48.301Z,4.37
2019-04-01T05:11:17.827Z,4.48
2019-04-01T05:13:48.331Z,4.29
2019-04-01T05:16:17.850Z,4.40
2019-04-01T05:18:47.358Z,4.37
2019-04-01T05:21:17.929Z,4.07
2019-04-01T05:23:48.136Z,4.13
2019-04-01T05:26:18.215Z,4.19
2019-04-01T05:28:47.746Z,4.17
2019-04-01T05:31:19.949Z,4.17
2019-04-01T05:33:55.743Z,4.04
2019-04-01T05:36:23.053Z,4.07
2019-04-01T05:38:52.647Z,4.22
2019-04-01T05:41:22.281Z,4.37
2019-04-01T05:43:51.920Z,4.55
2019-04-01T05:46:21.647Z,4.70
2019-04-01T05:48:51.236Z,4.61
2019-04-01T05:51:20.869Z,4.59
2019-04-01T05:53:50.404Z,4.75
2019-04-01T05:56:19.914Z,4.90
2019-04-01T05:58:49.443Z,4.99
2019-04-01T06:01:23.022Z,5.03
2019-04-01T06:03:52.543Z,5.00
2019-04-01T06:06:22.059Z,5.18
2019-04-01T06:08:51.593Z,5.09
2019-04-01T06:11:21.183Z,5.29
2019-04-01T06:13:50.790Z,5.31
2019-04-01T06:16:20.573Z,5.34
2019-04-01T06:18:50.085Z,5.34
2019-04-01T06:21:19.659Z,5.49
2019-04-01T06:23:50.173Z,5.68
2019-04-01T06:26:19.728Z,5.63
2019-04-01T06:28:49.278Z,5.73
2019-04-01T06:31:18.801Z,5.75
2019-04-01T06:33:49.375Z,5.88
2019-04-01T06:36:18.919Z,5.87
2019-04-01T06:38:48.807Z,5.97
2019-04-01T06:41:18.420Z,5.97
2019-04-01T06:43:47.946Z,5.90
2019-04-01T06:46:17.527Z,5.93
2019-04-01T06:48:47.144Z,6.12
2019-04-01T06:51:16.852Z,5.87
2019-04-01T06:53:46.377Z,5.82
2019-04-01T06:56:15.895Z,6.09
2019-04-01T06:58:45.478Z,6.27
2019-04-01T07:01:15.042Z,6.36
2019-04-01T07:03:44.537Z,6.43
2019-04-01T07:06:15.093Z,6.29
2019-04-01T07:08:44.626Z,6.31
2019-04-01T07:11:14.130Z,6.32
2019-04-01T07:13:44.245Z,6.55
2019-04-01T07:16:15.776Z,6.58
2019-04-01T07:18:45.044Z,6.54
2019-04-01T07:21:14.599Z,6.73
2019-04-01T07:23:44.182Z,6.55
2019-04-01T07:26:13.869Z,6.74
2019-04-01T07:28:45.470Z,6.76
2019-04-01T07:31:14.985Z,6.84
2019-04-01T07:33:45.483Z,6.85
2019-04-01T07:36:15.076Z,6.69
2019-04-01T07:38:44.669Z,6.86
2019-04-01T07:41:14.269Z,7.02
2019-04-01T07:43:43.784Z,7.25
2019-04-01T07:46:13.381Z,7.26
2019-04-01T07:48:43.019Z,7.16
2019-04-01T07:51:12.590Z,7.31
2019-04-01T07:53:42.208Z,7.26
2019-04-01T07:56:11.733Z,7.19
2019-04-01T07:58:42.099Z,7.34
2019-04-01T08:01:11.980Z,7.40
2019-04-01T08:03:42.034Z,7.44
2019-04-01T08:06:11.971Z,7.47
2019-04-01T08:08:41.493Z,7.41
2019-04-01T08:11:11.096Z,7.46
2019-04-01T08:13:40.616Z,7.45
2019-04-01T08:16:10.140Z,7.45
2019-04-01T08:18:39.760Z,7.48
2019-04-01T08:21:09.379Z,7.68
2019-04-01T08:23:39.985Z,7.78
2019-04-01T08:26:09.579Z,7.89
2019-04-01T08:28:39.097Z,7.78
2019-04-01T08:31:08.694Z,8.12
2019-04-01T08:33:38.243Z,8.24
2019-04-01T08:36:07.768Z,8.56
2019-04-01T08:38:37.440Z,8.64
2019-04-01T08:41:08.016Z,8.48
2019-04-01T08:43:37.532Z,8.39
2019-04-01T08:46:07.140Z,8.65
2019-04-01T08:48:36.794Z,8.68
2019-04-01T08:51:06.362Z,8.78
2019-04-01T08:53:36.942Z,8.85
2019-04-01T08:56:06.578Z,9.10
2019-04-01T08:58:36.522Z,9.07
2019-04-01T09:01:06.172Z,9.21
2019-04-01T09:03:35.712Z,9.51
2019-04-01T09:06:05.465Z,9.69
2019-04-01T09:08:35.112Z,9.53
2019-04-01T09:11:04.716Z,9.55
2019-04-01T09:13:34.316Z,9.49
2019-04-01T09:16:04.349Z,9.50
2019-04-01T09:18:33.868Z,9.69
2019-04-01T09:21:03.491Z,9.60
2019-04-01T09:23:34.145Z,9.71
2019-04-01T09:26:03.679Z,9.85
2019-04-01T09:28:33.296Z,9.86
2019-04-01T09:31:02.911Z,9.67
2019-04-01T09:33:32.423Z,9.93
2019-04-01T09:36:01.996Z,10.07
2019-04-01T09:38:31.570Z,10.03
2019-04-01T09:41:01.173Z,10.21
2019-04-01T09:43:30.738Z,9.98
2019-04-01T09:46:00.338Z,10.14
2019-04-01T09:48:30.026Z,10.24
2019-04-01T09:50:59.557Z,10.28
2019-04-01T09:53:29.090Z,10.51
2019-04-01T09:55:58.641Z,10.55
2019-04-01T09:58:28.791Z,10.37
2019-04-01T10:00:58.342Z,10.16
2019-04-01T10:03:27.875Z,10.44
2019-04-01T10:05:57.425Z,10.55
2019-04-01T10:08:41.587Z,10.62
2019-04-01T10:10:59.189Z,10.44
2019-04-01T10:13:28.774Z,10.60
2019-04-01T10:15:58.301Z,10.87
2019-04-01T10:18:27.837Z,10.81
2019-04-01T10:20:57.388Z,10.68
2019-04-01T10:23:27.903Z,10.82
2019-04-01T10:25:57.429Z,10.84
2019-04-01T10:28:26.948Z,10.70
2019-04-01T10:30:56.596Z,11.09
2019-04-01T10:33:26.126Z,11.14
2019-04-01T10:35:55.663Z,11.19
2019-04-01T10:38:25.275Z,11.18
2019-04-01T10:40:54.830Z,11.08
2019-04-01T10:43:24.338Z,11.46
2019-04-01T10:45:53.910Z,11.26
2019-04-01T10:48:23.524Z,11.55
2019-04-01T10:50:53.110Z,11.41
2019-04-01T10:53:22.870Z,11.46
2019-04-01T10:55:52.568Z,11.60
2019-04-01T10:58:22.176Z,11.67
2019-04-01T11:00:51.871Z,11.53
2019-04-01T11:03:21.449Z,11.73
2019-04-01T11:05:51.043Z,11.57
2019-04-01T11:08:20.542Z,11.63
2019-04-01T11:10:50.037Z,11.35
2019-04-01T11:13:19.577Z,11.48
2019-04-01T11:15:49.184Z,11.51
2019-04-01T11:18:18.803Z,11.71
2019-04-01T11:20:48.386Z,11.79
2019-04-01T11:23:18.015Z,11.96
2019-04-01T11:25:47.541Z,12.23
2019-04-01T11:28:17.134Z,11.92
2019-04-01T11:30:46.664Z,11.88
2019-04-01T11:33:16.223Z,11.93
2019-04-01T11:35:46.048Z,11.94
2019-04-01T11:38:15.764Z,12.09
2019-04-01T11:40:45.277Z,11.87
2019-04-01T11:43:14.804Z,12.11
2019-04-01T11:45:44.427Z,12.34
2019-04-01T11:48:14.004Z,12.35
2019-04-01T11:50:43.553Z,12.30
2019-04-01T11:53:13.126Z,12.16
2019-04-01T11:55:42.750Z,12.13
2019-04-01T11:58:12.367Z,11.97
2019-04-01T12:00:41.894Z,12.27
2019-04-01T12:03:11.422Z,12.47
2019-04-01T12:05:40.930Z,12.45
2019-04-01T12:08:10.483Z,12.54
2019-04-01T12:10:40.044Z,12.26
2019-04-01T12:13:09.556Z,12.43
2019-04-01T12:15:39.083Z,12.36
2019-04-01T12:18:09.832Z,12.73
2019-04-01T12:20:39.441Z,12.84
2019-04-01T12:23:10.253Z,12.68
2019-04-01T12:25:39.802Z,12.72
2019-04-01T12:28:09.422Z,12.69
2019-04-01T12:30:38.936Z,12.90
2019-04-01T12:33:09.263Z,12.92
2019-04-01T12:35:38.845Z,12.50
2019-04-01T12:38:08.366Z,12.81
2019-04-01T12:40:37.947Z,13.06
2019-04-01T12:43:07.510Z,13.07
2019-04-01T12:45:38.116Z,13.06
2019-04-01T12:48:07.729Z,13.33
2019-04-01T12:50:37.276Z,13.18
2019-04-01T12:53:07.168Z,13.41
2019-04-01T12:55:36.802Z,13.39
2019-04-01T12:58:06.366Z,13.31
2019-04-01T13:00:35.962Z,13.29
2019-04-01T13:03:05.532Z,13.43
2019-04-01T13:05:35.154Z,13.58
2019-04-01T13:08:04.796Z,13.34
2019-04-01T13:10:34.443Z,13.35
2019-04-01T13:13:04.026Z,13.44
2019-04-01T13:15:33.573Z,13.53
2019-04-01T13:18:03.108Z,13.53
2019-04-01T13:20:38.008Z,13.48
2019-04-01T13:23:03.870Z,13.69
2019-04-01T13:25:33.972Z,13.40
2019-04-01T13:28:03.699Z,13.46
2019-04-01T13:30:33.228Z,13.46
2019-04-01T13:33:02.778Z,13.60
2019-04-01T13:35:32.327Z,13.52
2019-04-01T13:38:01.848Z,13.45
2019-04-01T13:40:31.380Z,13.56
2019-04-01T13:43:04.403Z,13.47
2019-04-01T13:45:32.200Z,13.59
2019-04-01T13:48:01.824Z,13.58
2019-04-01T13:50:31.757Z,13.48
2019-04-01T13:53:02.163Z,13.75
2019-04-01T13:55:32.656Z,13.78
2019-04-01T13:58:02.190Z,13.75
2019-04-01T14:00:31.712Z,13.80
2019-04-01T14:03:01.239Z,13.67
2019-04-01T14:05:30.756Z,13.73
2019-04-01T14:08:00.270Z,13.70
2019-04-01T14:10:29.805Z,13.79
2019-04-01T14:12:59.406Z,13.93
2019-04-01T14:15:28.907Z,13.97
2019-04-01T14:17:58.426Z,14.05
2019-04-01T14:20:27.958Z,14.06
2019-04-01T14:22:57.479Z,13.82
2019-04-01T14:25:26.994Z,14.06
2019-04-01T14:27:56.501Z,14.07
2019-04-01T14:30:26.096Z,13.86
2019-04-01T14:32:55.660Z,13.82
2019-04-01T14:35:25.207Z,13.98
2019-04-01T14:37:58.023Z,13.83
2019-04-01T14:40:25.960Z,14.08
2019-04-01T14:42:55.502Z,13.94
2019-04-01T14:45:25.019Z,14.13
2019-04-01T14:47:57.604Z,14.07
2019-04-01T14:50:25.787Z,14.14
2019-04-01T14:52:55.291Z,14.42
2019-04-01T14:55:24.815Z,14.45
2019-04-01T14:57:54.983Z,14.43
2019-04-01T15:00:24.807Z,14.17
2019-04-01T15:02:54.318Z,14.19
2019-04-01T15:05:24.131Z,14.39
2019-04-01T15:07:53.645Z,14.33
2019-04-01T15:10:23.378Z,14.55
2019-04-01T15:13:04.459Z,14.50
2019-04-01T15:15:24.217Z,14.32
2019-04-01T15:17:53.727Z,14.46
2019-04-01T15:20:23.275Z,14.45
2019-04-01T15:22:53.385Z,14.34
2019-04-01T15:25:22.929Z,14.38
2019-04-01T15:27:52.477Z,14.47
2019-04-01T15:30:22.104Z,14.33
2019-04-01T15:32:52.160Z,14.40
2019-04-01T15:35:22.166Z,14.44
2019-04-01T15:37:52.156Z,14.57
2019-04-01T15:40:22.148Z,14.82
2019-04-01T15:42:51.713Z,14.90
2019-04-01T15:45:21.330Z,15.03
2019-04-01T15:47:50.859Z,14.90
2019-04-01T15:50:28.468Z,14.83
2019-04-01T15:52:52.753Z,14.80
2019-04-01T15:55:22.316Z,14.88
2019-04-01T15:57:51.830Z,14.75
2019-04-01T16:00:21.508Z,14.85
2019-04-01T16:02:51.151Z,14.73
2019-04-01T16:05:20.678Z,14.84
2019-04-01T16:07:50.286Z,14.60
2019-04-01T16:10:20.900Z,14.84
2019-04-01T16:12:50.637Z,14.64
2019-04-01T16:15:20.269Z,14.80
2019-04-01T16:17:49.953Z,14.89
2019-04-01T16:20:19.493Z,14.99
2019-04-01T16:22:49.305Z,14.93
2019-04-01T16:25:20.695Z,14.82
2019-04-01T16:27:50.254Z,14.77
2019-04-01T16:30:19.779Z,14.54
2019-04-01T16:32:49.336Z,14.48
2019-04-01T16:35:18.865Z,14.20
2019-04-01T16:37:48.417Z,14.18
2019-04-01T16:40:18.428Z,14.23
2019-04-01T16:42:48.475Z,14.22
2019-04-01T16:45:18.206Z,14.12
2019-04-01T16:47:48.589Z,14.06
2019-04-01T16:50:18.539Z,14.10
2019-04-01T16:52:48.099Z,14.15
2019-04-01T16:55:18.401Z,14.04
2019-04-01T16:57:48.242Z,14.06
2019-04-01T17:00:19.487Z,14.08
2019-04-01T17:02:50.033Z,13.99
2019-04-01T17:05:24.317Z,13.96
2019-04-01T17:07:53.838Z,13.94
2019-04-01T17:10:25.018Z,13.88
2019-04-01T17:12:54.632Z,13.93
2019-04-01T17:15:24.441Z,13.76
2019-04-01T17:17:53.972Z,13.67
2019-04-01T17:20:23.498Z,13.69
2019-04-01T17:22:53.053Z,13.69
2019-04-01T17:25:22.601Z,13.65
2019-04-01T17:27:52.213Z,13.56
2019-04-01T17:30:21.989Z,13.52
2019-04-01T17:32:52.895Z,13.63
2019-04-01T17:35:22.503Z,13.61
2019-04-01T17:37:53.127Z,13.66
2019-04-01T17:40:22.687Z,13.68
2019-04-01T17:42:53.184Z,13.58
2019-04-01T17:45:41.066Z,13.58
2019-04-01T17:48:10.840Z,13.50
2019-04-01T17:50:40.449Z,13.47
2019-04-01T17:53:10.611Z,13.51
2019-04-01T17:55:40.143Z,13.49
2019-04-01T17:58:09.711Z,13.50
2019-04-01T18:00:42.525Z,13.51
2019-04-01T18:03:12.131Z,13.56
2019-04-01T18:05:41.721Z,13.56
2019-04-01T18:08:11.333Z,13.47
2019-04-01T18:10:40.874Z,13.41
2019-04-01T18:13:13.715Z,13.30
2019-04-01T18:15:44.286Z,13.20
2019-04-01T18:18:26.068Z,13.07
2019-04-01T18:20:46.013Z,12.99
2019-04-01T18:23:15.551Z,13.04
2019-04-01T18:25:45.100Z,13.02
2019-04-01T18:28:14.638Z,12.91
2019-04-01T18:30:44.223Z,12.77
2019-04-01T18:33:13.767Z,12.67
2019-04-01T18:35:44.892Z,12.54
2019-04-01T18:38:14.573Z,12.59
2019-04-01T18:40:44.156Z,12.58
2019-04-01T18:43:13.683Z,12.54
2019-04-01T18:45:43.940Z,12.46
2019-04-01T18:48:14.760Z,12.48
2019-04-01T18:50:44.623Z,12.46
2019-04-01T18:53:14.232Z,12.51
2019-04-01T18:55:43.779Z,12.54
2019-04-01T18:58:13.322Z,12.57
2019-04-01T19:00:42.909Z,12.45
2019-04-01T19:03:12.547Z,12.44
2019-04-01T19:05:42.075Z,12.32
2019-04-01T19:08:11.628Z,12.39
2019-04-01T19:10:41.732Z,12.21
2019-04-01T19:13:12.703Z,12.25
2019-04-01T19:15:43.868Z,12.22
2019-04-01T19:18:14.481Z,12.22
2019-04-01T19:20:55.621Z,12.04
2019-04-01T19:23:16.546Z,12.09
2019-04-01T19:25:50.660Z,12.01
2019-04-01T19:28:20.883Z,12.33
2019-04-01T19:30:50.450Z,12.32
2019-04-01T19:33:19.998Z,12.22
2019-04-01T19:35:49.635Z,12.31
2019-04-01T19:38:21.318Z,12.18
2019-04-01T19:40:51.299Z,12.22
2019-04-01T19:43:21.610Z,12.14
2019-04-01T19:45:51.154Z,12.05
2019-04-01T19:48:20.724Z,12.07
2019-04-01T19:50:50.254Z,12.02
2019-04-01T19:53:19.824Z,11.72
2019-04-01T19:55:49.341Z,11.70
2019-04-01T19:58:18.964Z,11.56
2019-04-01T20:00:49.569Z,11.43
2019-04-01T20:03:19.180Z,11.47
2019-04-01T20:05:50.082Z,11.23
2019-04-01T20:08:19.586Z,11.33
2019-04-01T20:10:49.363Z,11.33
2019-04-01T20:13:18.901Z,11.41
2019-04-01T20:15:48.526Z,11.51
2019-04-01T20:18:18.066Z,11.50
2019-04-01T20:20:47.812Z,11.47
2019-04-01T20:23:17.520Z,11.51
2019-04-01T20:25:48.737Z,11.56
2019-04-01T20:28:18.420Z,11.59
2019-04-01T20:30:48.621Z,11.50
2019-04-01T20:33:19.634Z,11.33
2019-04-01T20:35:49.455Z,11.39
2019-04-01T20:38:19.357Z,11.47
2019-04-01T20:40:48.909Z,11.40
2019-04-01T20:43:18.429Z,11.47
2019-04-01T20:45:48.044Z,11.46
2019-04-01T20:48:17.590Z,11.39
2019-04-01T20:50:47.101Z,11.22
2019-04-01T20:53:16.652Z,11.31
2019-04-01T20:55:48.422Z,11.21
2019-04-01T20:58:17.641Z,11.18
2019-04-01T21:00:47.196Z,11.16
2019-04-01T21:03:17.084Z,11.19
2019-04-01T21:05:46.602Z,10.73
2019-04-01T21:08:16.461Z,10.97
2019-04-01T21:10:46.395Z,11.01
2019-04-01T21:13:16.030Z,10.90
2019-04-01T21:15:45.709Z,10.75
2019-04-01T21:18:15.295Z,10.80
2019-04-01T21:20:44.830Z,10.86
2019-04-01T21:23:14.364Z,10.74
2019-04-01T21:25:44.574Z,10.60
2019-04-01T21:28:14.145Z,10.56
2019-04-01T21:30:43.783Z,10.40
2019-04-01T21:33:14.066Z,10.41
2019-04-01T21:35:43.794Z,10.44
2019-04-01T21:38:13.324Z,10.38
2019-04-01T21:40:42.876Z,10.32
2019-04-01T21:43:14.163Z,10.34
2019-04-01T21:45:45.803Z,10.28
2019-04-01T21:48:15.343Z,10.18
2019-04-01T21:50:44.872Z,10.15
2019-04-01T21:53:14.381Z,10.06
2019-04-01T21:55:43.904Z,9.91
2019-04-01T21:58:13.432Z,10.06
2019-04-01T22:00:54.034Z,10.10
2019-04-01T22:03:23.540Z,10.15
2019-04-01T22:05:53.056Z,10.06
2019-04-01T22:08:22.634Z,10.03
2019-04-01T22:10:52.154Z,10.05
2019-04-01T22:13:21.754Z,10.07
2019-04-01T22:15:51.290Z,10.09
2019-04-01T22:18:20.814Z,9.99
2019-04-01T22:20:50.340Z,9.91
2019-04-01T22:23:19.931Z,9.74
2019-04-01T22:25:49.455Z,9.78
2019-04-01T22:28:19.110Z,9.79
2019-04-01T22:30:48.620Z,9.77
2019-04-01T22:33:18.114Z,9.57
2019-04-01T22:35:47.712Z,9.59
2019-04-01T22:38:25.095Z,9.44
2019-04-01T22:40:48.427Z,9.67
2019-04-01T22:43:17.952Z,9.83
2019-04-01T22:45:48.334Z,9.70
2019-04-01T22:48:18.848Z,9.70
2019-04-01T22:50:48.366Z,9.72
2019-04-01T22:53:17.920Z,9.83
2019-04-01T22:55:47.445Z,9.80
2019-04-01T22:58:16.971Z,9.80
2019-04-01T23:00:47.186Z,9.78
2019-04-01T23:03:18.182Z,9.82
2019-04-01T23:05:47.700Z,9.80
2019-04-01T23:08:17.195Z,9.78
2019-04-01T23:10:46.715Z,9.82
2019-04-01T23:13:16.215Z,9.67
2019-04-01T23:15:45.734Z,9.67
2019-04-01T23:18:15.241Z,9.56
2019-04-01T23:20:44.748Z,9.46
2019-04-01T23:23:14.255Z,9.16
2019-04-01T23:25:43.783Z,8.75
2019-04-01T23:28:13.291Z,8.38
2019-04-01T23:30:42.814Z,8.22
2019-04-01T23:33:12.319Z,8.25
2019-04-01T23:35:42.289Z,8.14
2019-04-01T23:38:12.733Z,7.91
2019-04-01T23:40:42.243Z,7.66
2019-04-01T23:43:11.760Z,7.63
2019-04-01T23:45:41.279Z,7.68
2019-04-01T23:48:10.783Z,7.64
2019-04-01T23:50:40.287Z,7.79
2019-04-01T23:53:09.782Z,7.75
2019-04-01T23:55:39.291Z,7.83
2019-04-01T23:58:08.795Z,7.99
